This is the latest recevied weather packets stored in our database for station/object DL7MAP-13. If no packets are shown the sender has not sent any weather packets the latest 10 day(s).
| Time | Temp. | Humidity | Pressure | Rain* | Wind** | Luminosity | Snow |
|---|---|---|---|---|---|---|---|
| 1777991287 | 18.89° C | 72% | 1003.2 hPa | - | - | - | - |
| 1777990387 | 18.33° C | 72% | 1003 hPa | - | - | - | - |
| 1777989487 | 18.89° C | 72% | 1003.2 hPa | - | - | - | - |
| 1777988587 | 18.89° C | 72% | 1002.9 hPa | - | - | - | - |
| 1777987687 | 18.89° C | 72% | 1002.8 hPa | - | - | - | - |
| 1777986787 | 19.44° C | 69% | 1003.4 hPa | - | - | - | - |
| 1777985887 | 20° C | 67% | 1003.3 hPa | - | - | - | - |
| 1777984987 | 19.44° C | 68% | 1003.4 hPa | - | - | - | - |
| 1777984087 | 19.44° C | 70% | 1003.5 hPa | - | - | - | - |
| 1777983187 | 19.44° C | 69% | 1004.6 hPa | - | - | - | - |
| 1777981387 | 19.44° C | 69% | 1004.5 hPa | - | - | - | - |
| 1777980487 | 19.44° C | 69% | 1004 hPa | - | - | - | - |
| 1777979587 | 19.44° C | 70% | 1004.1 hPa | - | - | - | - |
| 1777978687 | 19.44° C | 69% | 1004.5 hPa | - | - | - | - |
| 1777977787 | 18.89° C | 70% | 1004 hPa | - | - | - | - |
| 1777976887 | 18.33° C | 71% | 1003.9 hPa | - | - | - | - |
| 1777975987 | 18.89° C | 68% | 1004.4 hPa | - | - | - | - |
| 1777975087 | 18.89° C | 70% | 1003.9 hPa | - | - | - | - |
| 1777974187 | 18.33° C | 71% | 1004 hPa | - | - | - | - |
| 1777973287 | 18.33° C | 72% | 1005.4 hPa | - | - | - | - |
| 1777972387 | 17.22° C | 74% | 1004.4 hPa | - | - | - | - |
| 1777971487 | 17.22° C | 75% | 1004.2 hPa | - | - | - | - |
| 1777970587 | 16.67° C | 76% | 1005.6 hPa | - | - | - | - |
| 1777969687 | 16.11° C | 78% | 1005 hPa | - | - | - | - |
| 1777968787 | 15.56° C | 78% | 1004.8 hPa | - | - | - | - |
* Rain since midnight (hover to see other rain measurements)
** Current wind speed in m/s (hover to see current wind gust speed)